sensor_id;sensor_type;location;lat;lon;timestamp;temperature;humidity
73137;DHT22;61329;45.638;11.714;2022-07-03T00:01:24;29.90;46.80
73137;DHT22;61329;45.638;11.714;2022-07-03T00:03:51;29.80;46.80
73137;DHT22;61329;45.638;11.714;2022-07-03T00:06:17;29.80;46.80
73137;DHT22;61329;45.638;11.714;2022-07-03T00:08:43;29.90;46.80
73137;DHT22;61329;45.638;11.714;2022-07-03T00:11:09;29.90;47.10
73137;DHT22;61329;45.638;11.714;2022-07-03T00:13:35;29.80;46.70
73137;DHT22;61329;45.638;11.714;2022-07-03T00:16:01;29.70;46.70
73137;DHT22;61329;45.638;11.714;2022-07-03T00:18:27;29.90;47.00
73137;DHT22;61329;45.638;11.714;2022-07-03T00:21:05;29.80;46.90
73137;DHT22;61329;45.638;11.714;2022-07-03T00:23:45;29.70;46.90
73137;DHT22;61329;45.638;11.714;2022-07-03T00:26:13;29.80;46.90
73137;DHT22;61329;45.638;11.714;2022-07-03T00:28:41;29.70;47.00
73137;DHT22;61329;45.638;11.714;2022-07-03T00:31:10;29.70;47.00
73137;DHT22;61329;45.638;11.714;2022-07-03T00:33:37;29.70;46.90
73137;DHT22;61329;45.638;11.714;2022-07-03T00:36:04;29.60;47.10
73137;DHT22;61329;45.638;11.714;2022-07-03T00:38:30;29.70;47.00
73137;DHT22;61329;45.638;11.714;2022-07-03T00:40:56;29.60;47.00
73137;DHT22;61329;45.638;11.714;2022-07-03T00:43:25;29.70;47.00
73137;DHT22;61329;45.638;11.714;2022-07-03T00:45:53;29.60;47.10
73137;DHT22;61329;45.638;11.714;2022-07-03T00:48:20;29.60;46.90
73137;DHT22;61329;45.638;11.714;2022-07-03T00:50:50;29.60;47.20
73137;DHT22;61329;45.638;11.714;2022-07-03T00:53:28;29.60;47.20
73137;DHT22;61329;45.638;11.714;2022-07-03T00:55:56;29.60;47.10
73137;DHT22;61329;45.638;11.714;2022-07-03T00:58:22;29.60;47.60
73137;DHT22;61329;45.638;11.714;2022-07-03T01:00:50;29.60;47.10
73137;DHT22;61329;45.638;11.714;2022-07-03T01:03:19;29.60;47.30
73137;DHT22;61329;45.638;11.714;2022-07-03T01:05:53;29.60;47.30
73137;DHT22;61329;45.638;11.714;2022-07-03T01:08:37;29.60;47.60
73137;DHT22;61329;45.638;11.714;2022-07-03T01:16:51;29.50;47.50
73137;DHT22;61329;45.638;11.714;2022-07-03T01:19:38;29.60;47.60
73137;DHT22;61329;45.638;11.714;2022-07-03T01:25:12;29.60;47.50
73137;DHT22;61329;45.638;11.714;2022-07-03T01:31:06;29.60;47.90
73137;DHT22;61329;45.638;11.714;2022-07-03T01:33:26;29.50;47.90
73137;DHT22;61329;45.638;11.714;2022-07-03T01:36:05;29.50;47.70
73137;DHT22;61329;45.638;11.714;2022-07-03T01:38:37;29.50;48.00
73137;DHT22;61329;45.638;11.714;2022-07-03T01:41:05;29.60;48.20
73137;DHT22;61329;45.638;11.714;2022-07-03T01:43:34;29.50;48.00
73137;DHT22;61329;45.638;11.714;2022-07-03T01:46:02;29.50;47.60
73137;DHT22;61329;45.638;11.714;2022-07-03T01:48:30;29.50;47.80
73137;DHT22;61329;45.638;11.714;2022-07-03T01:50:57;29.50;47.80
73137;DHT22;61329;45.638;11.714;2022-07-03T01:53:26;29.50;47.90
73137;DHT22;61329;45.638;11.714;2022-07-03T01:55:56;29.50;47.60
73137;DHT22;61329;45.638;11.714;2022-07-03T01:58:24;29.50;47.60
73137;DHT22;61329;45.638;11.714;2022-07-03T02:03:51;29.50;47.80
73137;DHT22;61329;45.638;11.714;2022-07-03T02:09:07;29.50;47.60
73137;DHT22;61329;45.638;11.714;2022-07-03T02:11:42;29.40;47.90
73137;DHT22;61329;45.638;11.714;2022-07-03T02:17:07;29.50;47.50
73137;DHT22;61329;45.638;11.714;2022-07-03T02:19:48;29.50;47.50
73137;DHT22;61329;45.638;11.714;2022-07-03T02:22:25;29.40;47.90
73137;DHT22;61329;45.638;11.714;2022-07-03T02:24:53;29.50;47.50
73137;DHT22;61329;45.638;11.714;2022-07-03T02:27:23;29.40;47.70
73137;DHT22;61329;45.638;11.714;2022-07-03T02:30:07;29.40;47.70
73137;DHT22;61329;45.638;11.714;2022-07-03T02:32:36;29.40;47.70
73137;DHT22;61329;45.638;11.714;2022-07-03T02:35:10;29.40;47.60
73137;DHT22;61329;45.638;11.714;2022-07-03T02:40:28;29.40;47.80
73137;DHT22;61329;45.638;11.714;2022-07-03T02:47:06;29.40;47.90
73137;DHT22;61329;45.638;11.714;2022-07-03T02:52:17;29.40;48.10
73137;DHT22;61329;45.638;11.714;2022-07-03T02:54:47;29.40;48.30
73137;DHT22;61329;45.638;11.714;2022-07-03T02:57:15;29.40;48.10
73137;DHT22;61329;45.638;11.714;2022-07-03T02:59:57;29.50;48.30
73137;DHT22;61329;45.638;11.714;2022-07-03T03:08:16;29.40;48.30
73137;DHT22;61329;45.638;11.714;2022-07-03T03:10:45;29.30;48.20
73137;DHT22;61329;45.638;11.714;2022-07-03T03:13:14;29.40;48.00
73137;DHT22;61329;45.638;11.714;2022-07-03T03:16:09;29.40;47.90
73137;DHT22;61329;45.638;11.714;2022-07-03T03:18:45;29.30;48.30
73137;DHT22;61329;45.638;11.714;2022-07-03T03:21:16;29.40;48.00
73137;DHT22;61329;45.638;11.714;2022-07-03T03:23:50;29.40;48.10
73137;DHT22;61329;45.638;11.714;2022-07-03T03:26:22;29.30;47.80
73137;DHT22;61329;45.638;11.714;2022-07-03T03:28:49;29.40;48.10
73137;DHT22;61329;45.638;11.714;2022-07-03T03:31:15;29.30;48.00
73137;DHT22;61329;45.638;11.714;2022-07-03T03:33:43;29.40;48.10
73137;DHT22;61329;45.638;11.714;2022-07-03T03:36:12;29.40;48.00
73137;DHT22;61329;45.638;11.714;2022-07-03T03:38:39;29.30;48.30
73137;DHT22;61329;45.638;11.714;2022-07-03T03:41:07;29.30;48.10
73137;DHT22;61329;45.638;11.714;2022-07-03T03:43:34;29.40;48.10
73137;DHT22;61329;45.638;11.714;2022-07-03T03:46:03;29.30;48.20
73137;DHT22;61329;45.638;11.714;2022-07-03T03:48:33;29.30;48.10
73137;DHT22;61329;45.638;11.714;2022-07-03T03:51:00;29.30;48.20
73137;DHT22;61329;45.638;11.714;2022-07-03T03:53:27;29.30;48.40
73137;DHT22;61329;45.638;11.714;2022-07-03T03:55:59;29.40;48.40
73137;DHT22;61329;45.638;11.714;2022-07-03T03:58:26;29.30;48.20
73137;DHT22;61329;45.638;11.714;2022-07-03T04:00:52;29.30;48.30
73137;DHT22;61329;45.638;11.714;2022-07-03T04:03:19;29.30;48.30
73137;DHT22;61329;45.638;11.714;2022-07-03T04:05:45;29.40;48.50
73137;DHT22;61329;45.638;11.714;2022-07-03T04:08:10;29.30;48.40
73137;DHT22;61329;45.638;11.714;2022-07-03T04:10:37;29.30;48.60
73137;DHT22;61329;45.638;11.714;2022-07-03T04:13:05;29.40;48.70
73137;DHT22;61329;45.638;11.714;2022-07-03T04:15:31;29.30;48.70
73137;DHT22;61329;45.638;11.714;2022-07-03T04:17:57;29.30;48.50
73137;DHT22;61329;45.638;11.714;2022-07-03T04:20:24;29.40;48.40
73137;DHT22;61329;45.638;11.714;2022-07-03T04:22:50;29.40;48.50
73137;DHT22;61329;45.638;11.714;2022-07-03T04:25:17;29.30;48.30
73137;DHT22;61329;45.638;11.714;2022-07-03T04:27:44;29.30;48.40
73137;DHT22;61329;45.638;11.714;2022-07-03T04:30:11;29.30;48.30
73137;DHT22;61329;45.638;11.714;2022-07-03T04:32:38;29.40;48.00
73137;DHT22;61329;45.638;11.714;2022-07-03T04:35:05;29.40;48.30
73137;DHT22;61329;45.638;11.714;2022-07-03T04:37:31;29.40;48.10
73137;DHT22;61329;45.638;11.714;2022-07-03T04:39:57;29.30;48.10
73137;DHT22;61329;45.638;11.714;2022-07-03T04:42:23;29.30;48.00
73137;DHT22;61329;45.638;11.714;2022-07-03T04:44:51;29.40;48.00
73137;DHT22;61329;45.638;11.714;2022-07-03T04:47:17;29.40;47.70
73137;DHT22;61329;45.638;11.714;2022-07-03T04:49:44;29.50;47.70
73137;DHT22;61329;45.638;11.714;2022-07-03T04:52:12;29.40;47.70
73137;DHT22;61329;45.638;11.714;2022-07-03T04:54:40;29.40;47.60
73137;DHT22;61329;45.638;11.714;2022-07-03T04:57:10;29.40;47.60
73137;DHT22;61329;45.638;11.714;2022-07-03T04:59:37;29.40;47.60
73137;DHT22;61329;45.638;11.714;2022-07-03T05:02:03;29.40;48.00
73137;DHT22;61329;45.638;11.714;2022-07-03T05:04:30;29.50;47.70
73137;DHT22;61329;45.638;11.714;2022-07-03T05:06:57;29.40;47.60
73137;DHT22;61329;45.638;11.714;2022-07-03T05:09:24;29.50;47.90
73137;DHT22;61329;45.638;11.714;2022-07-03T05:11:51;29.40;47.70
73137;DHT22;61329;45.638;11.714;2022-07-03T05:14:20;29.40;47.60
73137;DHT22;61329;45.638;11.714;2022-07-03T05:16:46;29.40;47.80
73137;DHT22;61329;45.638;11.714;2022-07-03T05:19:12;29.50;47.90
73137;DHT22;61329;45.638;11.714;2022-07-03T05:21:38;29.50;47.80
73137;DHT22;61329;45.638;11.714;2022-07-03T05:24:03;29.50;47.60
73137;DHT22;61329;45.638;11.714;2022-07-03T05:26:29;29.50;47.90
73137;DHT22;61329;45.638;11.714;2022-07-03T05:29:03;29.50;47.70
73137;DHT22;61329;45.638;11.714;2022-07-03T05:31:45;29.50;47.60
73137;DHT22;61329;45.638;11.714;2022-07-03T05:34:11;29.50;47.80
73137;DHT22;61329;45.638;11.714;2022-07-03T05:36:37;29.50;47.80
73137;DHT22;61329;45.638;11.714;2022-07-03T05:39:04;29.60;48.00
73137;DHT22;61329;45.638;11.714;2022-07-03T05:41:49;29.60;47.80
73137;DHT22;61329;45.638;11.714;2022-07-03T05:44:15;29.60;47.60
73137;DHT22;61329;45.638;11.714;2022-07-03T05:46:42;29.60;47.40
73137;DHT22;61329;45.638;11.714;2022-07-03T05:49:13;29.60;47.70
73137;DHT22;61329;45.638;11.714;2022-07-03T05:51:40;29.60;47.40
73137;DHT22;61329;45.638;11.714;2022-07-03T05:54:06;29.60;47.40
73137;DHT22;61329;45.638;11.714;2022-07-03T05:56:34;29.60;47.80
73137;DHT22;61329;45.638;11.714;2022-07-03T05:59:00;29.60;47.50
73137;DHT22;61329;45.638;11.714;2022-07-03T06:01:26;29.60;47.40
73137;DHT22;61329;45.638;11.714;2022-07-03T06:03:52;29.70;47.70
73137;DHT22;61329;45.638;11.714;2022-07-03T06:06:18;29.60;47.60
73137;DHT22;61329;45.638;11.714;2022-07-03T06:08:43;29.60;47.50
73137;DHT22;61329;45.638;11.714;2022-07-03T06:11:09;29.60;47.10
73137;DHT22;61329;45.638;11.714;2022-07-03T06:13:35;29.70;47.40
73137;DHT22;61329;45.638;11.714;2022-07-03T06:16:01;29.70;47.20
73137;DHT22;61329;45.638;11.714;2022-07-03T06:18:27;29.70;47.60
73137;DHT22;61329;45.638;11.714;2022-07-03T06:20:53;29.70;47.20
73137;DHT22;61329;45.638;11.714;2022-07-03T06:23:19;29.80;47.30
73137;DHT22;61329;45.638;11.714;2022-07-03T06:25:44;29.70;47.20
73137;DHT22;61329;45.638;11.714;2022-07-03T06:28:10;29.90;47.20
73137;DHT22;61329;45.638;11.714;2022-07-03T06:30:36;29.90;47.00
73137;DHT22;61329;45.638;11.714;2022-07-03T06:33:02;29.80;47.10
73137;DHT22;61329;45.638;11.714;2022-07-03T06:35:28;29.80;47.10
73137;DHT22;61329;45.638;11.714;2022-07-03T06:37:54;29.90;46.70
73137;DHT22;61329;45.638;11.714;2022-07-03T06:40:20;29.90;47.00
73137;DHT22;61329;45.638;11.714;2022-07-03T06:42:46;29.90;46.90
73137;DHT22;61329;45.638;11.714;2022-07-03T06:45:12;30.00;46.80
73137;DHT22;61329;45.638;11.714;2022-07-03T06:47:38;29.90;47.30
73137;DHT22;61329;45.638;11.714;2022-07-03T06:50:05;30.00;47.90
73137;DHT22;61329;45.638;11.714;2022-07-03T06:52:31;30.00;48.20
73137;DHT22;61329;45.638;11.714;2022-07-03T06:54:57;30.10;48.40
73137;DHT22;61329;45.638;11.714;2022-07-03T06:57:23;30.00;48.10
73137;DHT22;61329;45.638;11.714;2022-07-03T06:59:49;30.10;47.60
73137;DHT22;61329;45.638;11.714;2022-07-03T07:02:15;30.10;47.70
73137;DHT22;61329;45.638;11.714;2022-07-03T07:04:40;30.00;47.40
73137;DHT22;61329;45.638;11.714;2022-07-03T07:07:06;30.00;47.40
73137;DHT22;61329;45.638;11.714;2022-07-03T07:09:36;29.90;46.50
73137;DHT22;61329;45.638;11.714;2022-07-03T07:12:09;30.10;45.80
73137;DHT22;61329;45.638;11.714;2022-07-03T07:14:36;30.00;45.60
73137;DHT22;61329;45.638;11.714;2022-07-03T07:17:06;29.90;45.80
73137;DHT22;61329;45.638;11.714;2022-07-03T07:19:34;30.00;45.20
73137;DHT22;61329;45.638;11.714;2022-07-03T07:22:03;29.90;45.20
73137;DHT22;61329;45.638;11.714;2022-07-03T07:24:32;29.90;44.90
73137;DHT22;61329;45.638;11.714;2022-07-03T07:26:58;30.00;45.00
73137;DHT22;61329;45.638;11.714;2022-07-03T07:29:29;30.00;44.80
73137;DHT22;61329;45.638;11.714;2022-07-03T07:31:57;30.00;44.50
73137;DHT22;61329;45.638;11.714;2022-07-03T07:34:23;29.90;44.80
73137;DHT22;61329;45.638;11.714;2022-07-03T07:36:52;30.00;44.40
73137;DHT22;61329;45.638;11.714;2022-07-03T07:39:22;29.90;44.10
73137;DHT22;61329;45.638;11.714;2022-07-03T07:41:50;29.90;43.90
73137;DHT22;61329;45.638;11.714;2022-07-03T07:44:17;29.90;44.00
73137;DHT22;61329;45.638;11.714;2022-07-03T07:46:44;29.80;43.70
73137;DHT22;61329;45.638;11.714;2022-07-03T07:49:10;29.80;43.60
73137;DHT22;61329;45.638;11.714;2022-07-03T07:51:36;29.90;44.00
73137;DHT22;61329;45.638;11.714;2022-07-03T07:54:03;29.80;43.50
73137;DHT22;61329;45.638;11.714;2022-07-03T07:56:29;29.80;43.40
73137;DHT22;61329;45.638;11.714;2022-07-03T07:58:54;29.90;43.50
73137;DHT22;61329;45.638;11.714;2022-07-03T08:01:22;29.90;43.50
73137;DHT22;61329;45.638;11.714;2022-07-03T08:04:08;29.80;43.60
73137;DHT22;61329;45.638;11.714;2022-07-03T08:06:53;29.90;43.20
73137;DHT22;61329;45.638;11.714;2022-07-03T08:09:19;29.80;43.20
73137;DHT22;61329;45.638;11.714;2022-07-03T08:11:45;29.90;43.30
73137;DHT22;61329;45.638;11.714;2022-07-03T08:14:11;29.80;43.10
73137;DHT22;61329;45.638;11.714;2022-07-03T08:16:37;29.80;43.10
73137;DHT22;61329;45.638;11.714;2022-07-03T08:19:12;29.90;43.30
73137;DHT22;61329;45.638;11.714;2022-07-03T08:21:42;29.90;43.00
73137;DHT22;61329;45.638;11.714;2022-07-03T08:24:10;29.80;42.90
73137;DHT22;61329;45.638;11.714;2022-07-03T08:26:39;29.90;43.00
73137;DHT22;61329;45.638;11.714;2022-07-03T08:29:05;29.80;42.70
73137;DHT22;61329;45.638;11.714;2022-07-03T08:31:31;29.80;42.60
73137;DHT22;61329;45.638;11.714;2022-07-03T08:33:57;29.80;42.80
73137;DHT22;61329;45.638;11.714;2022-07-03T08:36:24;29.80;43.00
73137;DHT22;61329;45.638;11.714;2022-07-03T08:38:51;29.90;42.50
73137;DHT22;61329;45.638;11.714;2022-07-03T08:41:19;29.90;42.30
73137;DHT22;61329;45.638;11.714;2022-07-03T08:43:47;29.80;42.20
73137;DHT22;61329;45.638;11.714;2022-07-03T08:46:13;29.80;42.50
73137;DHT22;61329;45.638;11.714;2022-07-03T08:48:40;29.90;42.30
73137;DHT22;61329;45.638;11.714;2022-07-03T08:51:11;29.80;42.50
73137;DHT22;61329;45.638;11.714;2022-07-03T08:53:40;29.80;42.50
73137;DHT22;61329;45.638;11.714;2022-07-03T08:56:08;30.00;42.40
73137;DHT22;61329;45.638;11.714;2022-07-03T08:58:37;29.80;42.30
73137;DHT22;61329;45.638;11.714;2022-07-03T09:01:07;29.80;42.40
73137;DHT22;61329;45.638;11.714;2022-07-03T09:03:33;29.90;42.20
73137;DHT22;61329;45.638;11.714;2022-07-03T09:06:01;29.70;42.40
73137;DHT22;61329;45.638;11.714;2022-07-03T09:08:30;29.80;42.20
73137;DHT22;61329;45.638;11.714;2022-07-03T09:10:58;29.80;41.90
73137;DHT22;61329;45.638;11.714;2022-07-03T09:13:24;29.80;41.90
73137;DHT22;61329;45.638;11.714;2022-07-03T09:15:50;29.70;42.10
73137;DHT22;61329;45.638;11.714;2022-07-03T09:18:16;29.80;41.80
73137;DHT22;61329;45.638;11.714;2022-07-03T09:20:43;29.80;42.10
73137;DHT22;61329;45.638;11.714;2022-07-03T09:23:13;29.80;41.30
73137;DHT22;61329;45.638;11.714;2022-07-03T09:26:00;29.80;41.50
73137;DHT22;61329;45.638;11.714;2022-07-03T09:28:53;29.60;41.50
73137;DHT22;61329;45.638;11.714;2022-07-03T09:31:22;29.80;41.50
73137;DHT22;61329;45.638;11.714;2022-07-03T09:34:04;29.90;41.50
73137;DHT22;61329;45.638;11.714;2022-07-03T09:36:49;29.80;41.50
73137;DHT22;61329;45.638;11.714;2022-07-03T09:39:26;29.80;41.40
73137;DHT22;61329;45.638;11.714;2022-07-03T09:42:02;29.80;41.30
73137;DHT22;61329;45.638;11.714;2022-07-03T09:44:38;29.70;41.30
73137;DHT22;61329;45.638;11.714;2022-07-03T09:49:55;29.80;41.00
73137;DHT22;61329;45.638;11.714;2022-07-03T09:52:43;29.70;40.60
73137;DHT22;61329;45.638;11.714;2022-07-03T09:57:36;29.90;39.90
73137;DHT22;61329;45.638;11.714;2022-07-03T10:02:57;30.10;39.30
73137;DHT22;61329;45.638;11.714;2022-07-03T10:07:59;30.30;38.60
73137;DHT22;61329;45.638;11.714;2022-07-03T10:10:31;30.40;38.30
73137;DHT22;61329;45.638;11.714;2022-07-03T10:12:57;30.50;37.60
73137;DHT22;61329;45.638;11.714;2022-07-03T10:15:25;30.60;37.50
73137;DHT22;61329;45.638;11.714;2022-07-03T10:17:53;30.60;37.30
73137;DHT22;61329;45.638;11.714;2022-07-03T10:20:34;30.70;36.70
73137;DHT22;61329;45.638;11.714;2022-07-03T10:23:00;30.70;36.70
73137;DHT22;61329;45.638;11.714;2022-07-03T10:25:27;30.90;36.60
73137;DHT22;61329;45.638;11.714;2022-07-03T10:27:55;30.90;35.90
73137;DHT22;61329;45.638;11.714;2022-07-03T10:30:23;31.00;35.70
73137;DHT22;61329;45.638;11.714;2022-07-03T10:32:54;31.00;35.60
73137;DHT22;61329;45.638;11.714;2022-07-03T10:35:35;31.20;35.00
73137;DHT22;61329;45.638;11.714;2022-07-03T10:43:39;31.30;34.80
73137;DHT22;61329;45.638;11.714;2022-07-03T10:46:25;31.30;34.70
73137;DHT22;61329;45.638;11.714;2022-07-03T10:49:01;31.50;34.50
73137;DHT22;61329;45.638;11.714;2022-07-03T10:51:30;31.40;34.70
73137;DHT22;61329;45.638;11.714;2022-07-03T10:54:13;31.50;34.10
73137;DHT22;61329;45.638;11.714;2022-07-03T11:07:30;31.70;33.20
73137;DHT22;61329;45.638;11.714;2022-07-03T11:12:56;31.60;33.50
73137;DHT22;61329;45.638;11.714;2022-07-03T11:15:31;31.60;32.80
73137;DHT22;61329;45.638;11.714;2022-07-03T11:25:45;31.80;33.10
73137;DHT22;61329;45.638;11.714;2022-07-03T11:41:25;31.90;31.90
73137;DHT22;61329;45.638;11.714;2022-07-03T11:43:57;31.90;31.40
73137;DHT22;61329;45.638;11.714;2022-07-03T11:46:24;31.90;31.20
73137;DHT22;61329;45.638;11.714;2022-07-03T11:49:11;31.90;31.70
73137;DHT22;61329;45.638;11.714;2022-07-03T11:51:42;31.80;31.10
73137;DHT22;61329;45.638;11.714;2022-07-03T11:54:08;31.90;31.40
73137;DHT22;61329;45.638;11.714;2022-07-03T11:56:35;31.90;31.40
73137;DHT22;61329;45.638;11.714;2022-07-03T11:59:04;31.90;31.20
73137;DHT22;61329;45.638;11.714;2022-07-03T12:01:33;31.90;31.00
73137;DHT22;61329;45.638;11.714;2022-07-03T12:04:07;31.90;30.80
73137;DHT22;61329;45.638;11.714;2022-07-03T12:06:55;31.90;31.00
73137;DHT22;61329;45.638;11.714;2022-07-03T12:14:17;31.90;31.00
73137;DHT22;61329;45.638;11.714;2022-07-03T12:16:58;31.90;30.80
73137;DHT22;61329;45.638;11.714;2022-07-03T12:19:24;31.90;30.70
73137;DHT22;61329;45.638;11.714;2022-07-03T12:21:51;31.90;30.60
73137;DHT22;61329;45.638;11.714;2022-07-03T12:24:17;31.90;30.50
73137;DHT22;61329;45.638;11.714;2022-07-03T12:26:43;31.90;30.40
73137;DHT22;61329;45.638;11.714;2022-07-03T12:29:10;32.00;30.50
73137;DHT22;61329;45.638;11.714;2022-07-03T12:31:40;31.90;30.60
73137;DHT22;61329;45.638;11.714;2022-07-03T12:34:07;32.00;30.30
73137;DHT22;61329;45.638;11.714;2022-07-03T12:36:33;31.90;30.70
73137;DHT22;61329;45.638;11.714;2022-07-03T12:38:59;32.00;30.10
73137;DHT22;61329;45.638;11.714;2022-07-03T12:41:26;31.90;30.00
73137;DHT22;61329;45.638;11.714;2022-07-03T12:43:53;31.90;30.00
73137;DHT22;61329;45.638;11.714;2022-07-03T12:46:27;31.90;30.20
73137;DHT22;61329;45.638;11.714;2022-07-03T12:48:59;31.90;29.90
73137;DHT22;61329;45.638;11.714;2022-07-03T12:51:52;32.00;29.70
73137;DHT22;61329;45.638;11.714;2022-07-03T12:54:32;32.00;29.70
73137;DHT22;61329;45.638;11.714;2022-07-03T12:57:08;31.90;30.40
73137;DHT22;61329;45.638;11.714;2022-07-03T13:00:08;32.00;29.50
73137;DHT22;61329;45.638;11.714;2022-07-03T13:02:39;32.00;29.70
73137;DHT22;61329;45.638;11.714;2022-07-03T13:05:15;32.10;29.90
73137;DHT22;61329;45.638;11.714;2022-07-03T13:07:42;32.00;29.70
73137;DHT22;61329;45.638;11.714;2022-07-03T13:10:09;32.00;29.60
73137;DHT22;61329;45.638;11.714;2022-07-03T13:12:57;32.00;29.20
73137;DHT22;61329;45.638;11.714;2022-07-03T13:15:27;32.00;29.10
73137;DHT22;61329;45.638;11.714;2022-07-03T13:22:54;31.90;29.80
73137;DHT22;61329;45.638;11.714;2022-07-03T13:25:20;31.80;30.30
73137;DHT22;61329;45.638;11.714;2022-07-03T13:27:46;31.80;30.40
73137;DHT22;61329;45.638;11.714;2022-07-03T13:30:14;31.80;30.30
73137;DHT22;61329;45.638;11.714;2022-07-03T13:32:40;31.70;30.60
73137;DHT22;61329;45.638;11.714;2022-07-03T13:35:06;31.80;30.60
73137;DHT22;61329;45.638;11.714;2022-07-03T13:37:32;31.80;30.40
73137;DHT22;61329;45.638;11.714;2022-07-03T13:39:58;31.80;30.00
73137;DHT22;61329;45.638;11.714;2022-07-03T13:42:24;31.90;29.70
73137;DHT22;61329;45.638;11.714;2022-07-03T13:44:51;31.90;29.00
73137;DHT22;61329;45.638;11.714;2022-07-03T13:47:17;31.90;29.30
73137;DHT22;61329;45.638;11.714;2022-07-03T13:49:46;32.00;29.50
73137;DHT22;61329;45.638;11.714;2022-07-03T13:52:15;31.90;29.40
73137;DHT22;61329;45.638;11.714;2022-07-03T13:54:44;31.90;29.30
73137;DHT22;61329;45.638;11.714;2022-07-03T13:57:19;31.90;29.30
73137;DHT22;61329;45.638;11.714;2022-07-03T13:59:53;32.00;28.80
73137;DHT22;61329;45.638;11.714;2022-07-03T14:02:30;32.00;29.00
73137;DHT22;61329;45.638;11.714;2022-07-03T14:05:07;32.00;29.20
73137;DHT22;61329;45.638;11.714;2022-07-03T14:07:36;32.00;29.30
73137;DHT22;61329;45.638;11.714;2022-07-03T14:10:03;32.10;28.50
73137;DHT22;61329;45.638;11.714;2022-07-03T14:12:28;32.10;29.10
73137;DHT22;61329;45.638;11.714;2022-07-03T14:14:54;32.00;29.00
73137;DHT22;61329;45.638;11.714;2022-07-03T14:17:22;32.00;28.70
73137;DHT22;61329;45.638;11.714;2022-07-03T14:19:49;32.00;29.20
73137;DHT22;61329;45.638;11.714;2022-07-03T14:22:15;32.00;28.80
73137;DHT22;61329;45.638;11.714;2022-07-03T14:24:41;32.00;28.60
73137;DHT22;61329;45.638;11.714;2022-07-03T14:27:07;32.00;28.90
73137;DHT22;61329;45.638;11.714;2022-07-03T14:29:51;32.00;28.50
73137;DHT22;61329;45.638;11.714;2022-07-03T14:32:35;31.90;28.90
73137;DHT22;61329;45.638;11.714;2022-07-03T14:35:02;31.90;29.10
73137;DHT22;61329;45.638;11.714;2022-07-03T14:37:28;31.90;28.80
73137;DHT22;61329;45.638;11.714;2022-07-03T14:39:54;31.90;28.50
73137;DHT22;61329;45.638;11.714;2022-07-03T14:42:20;32.00;28.80
73137;DHT22;61329;45.638;11.714;2022-07-03T14:44:46;32.00;28.70
73137;DHT22;61329;45.638;11.714;2022-07-03T14:47:12;31.90;28.50
73137;DHT22;61329;45.638;11.714;2022-07-03T14:49:38;31.90;28.40
73137;DHT22;61329;45.638;11.714;2022-07-03T14:52:05;31.90;29.00
73137;DHT22;61329;45.638;11.714;2022-07-03T14:54:32;31.90;28.70
73137;DHT22;61329;45.638;11.714;2022-07-03T14:57:00;31.90;28.50
73137;DHT22;61329;45.638;11.714;2022-07-03T15:02:04;31.80;29.20
73137;DHT22;61329;45.638;11.714;2022-07-03T15:04:57;31.80;29.10
73137;DHT22;61329;45.638;11.714;2022-07-03T15:07:24;31.80;28.30
73137;DHT22;61329;45.638;11.714;2022-07-03T15:10:12;31.90;28.50
73137;DHT22;61329;45.638;11.714;2022-07-03T15:12:42;31.90;28.40
73137;DHT22;61329;45.638;11.714;2022-07-03T15:15:10;32.00;28.00
73137;DHT22;61329;45.638;11.714;2022-07-03T15:17:37;32.00;28.50
73137;DHT22;61329;45.638;11.714;2022-07-03T15:20:04;31.90;28.70
73137;DHT22;61329;45.638;11.714;2022-07-03T15:22:30;32.00;28.40
73137;DHT22;61329;45.638;11.714;2022-07-03T15:24:58;31.90;28.20
73137;DHT22;61329;45.638;11.714;2022-07-03T15:27:25;32.00;28.10
73137;DHT22;61329;45.638;11.714;2022-07-03T15:29:53;32.00;28.30
73137;DHT22;61329;45.638;11.714;2022-07-03T15:32:19;32.00;28.40
73137;DHT22;61329;45.638;11.714;2022-07-03T15:34:45;32.00;28.20
73137;DHT22;61329;45.638;11.714;2022-07-03T15:42:27;32.00;27.50
73137;DHT22;61329;45.638;11.714;2022-07-03T15:47:44;32.00;27.40
73137;DHT22;61329;45.638;11.714;2022-07-03T15:50:26;32.00;28.00
73137;DHT22;61329;45.638;11.714;2022-07-03T15:52:53;31.90;28.10
73137;DHT22;61329;45.638;11.714;2022-07-03T15:55:21;31.90;28.10
73137;DHT22;61329;45.638;11.714;2022-07-03T15:58:02;32.00;27.80
73137;DHT22;61329;45.638;11.714;2022-07-03T16:00:34;31.90;28.00
73137;DHT22;61329;45.638;11.714;2022-07-03T16:05:41;32.00;27.90
73137;DHT22;61329;45.638;11.714;2022-07-03T16:08:12;32.00;27.80
73137;DHT22;61329;45.638;11.714;2022-07-03T16:10:42;32.00;28.20
73137;DHT22;61329;45.638;11.714;2022-07-03T16:13:08;32.00;27.70
73137;DHT22;61329;45.638;11.714;2022-07-03T16:15:40;32.00;27.60
73137;DHT22;61329;45.638;11.714;2022-07-03T16:18:07;32.00;28.20
73137;DHT22;61329;45.638;11.714;2022-07-03T16:20:33;32.00;27.60
73137;DHT22;61329;45.638;11.714;2022-07-03T16:23:03;31.90;27.20
73137;DHT22;61329;45.638;11.714;2022-07-03T16:25:31;32.00;28.00
73137;DHT22;61329;45.638;11.714;2022-07-03T16:28:01;32.00;28.10
73137;DHT22;61329;45.638;11.714;2022-07-03T16:30:28;32.00;27.90
73137;DHT22;61329;45.638;11.714;2022-07-03T16:32:55;31.90;28.00
73137;DHT22;61329;45.638;11.714;2022-07-03T16:35:39;32.00;28.10
73137;DHT22;61329;45.638;11.714;2022-07-03T16:38:06;31.90;28.80
73137;DHT22;61329;45.638;11.714;2022-07-03T16:40:33;31.90;28.70
73137;DHT22;61329;45.638;11.714;2022-07-03T16:43:10;31.90;29.00
73137;DHT22;61329;45.638;11.714;2022-07-03T16:45:52;32.00;29.20
73137;DHT22;61329;45.638;11.714;2022-07-03T16:48:24;32.00;29.50
73137;DHT22;61329;45.638;11.714;2022-07-03T16:50:58;32.00;29.90
73137;DHT22;61329;45.638;11.714;2022-07-03T16:53:26;32.10;29.90
73137;DHT22;61329;45.638;11.714;2022-07-03T16:55:57;32.00;29.90
73137;DHT22;61329;45.638;11.714;2022-07-03T16:58:25;32.00;30.30
73137;DHT22;61329;45.638;11.714;2022-07-03T17:00:51;32.00;30.10
73137;DHT22;61329;45.638;11.714;2022-07-03T17:03:19;32.00;30.20
73137;DHT22;61329;45.638;11.714;2022-07-03T17:05:46;32.10;30.10
73137;DHT22;61329;45.638;11.714;2022-07-03T17:08:16;32.10;30.80
73137;DHT22;61329;45.638;11.714;2022-07-03T17:10:45;32.20;30.60
73137;DHT22;61329;45.638;11.714;2022-07-03T17:13:11;32.10;30.50
73137;DHT22;61329;45.638;11.714;2022-07-03T17:15:40;32.10;30.80
73137;DHT22;61329;45.638;11.714;2022-07-03T17:18:07;32.20;30.60
73137;DHT22;61329;45.638;11.714;2022-07-03T17:20:44;32.20;30.70